To NAV CANADA Home Page Login to a new session Search on AWWS site Disclaimer Vers la page française équivalente Tips FAQ What's new on the site To the Forecasts and Observations / NOTAM section To "File a Flight Plan" website Publications and other links Update of the User's profile FIC Telephone Numbers My Weather Data Folder Route Weather Data Regional Weather Data Local Weather Data To the Forecasts and Observations / NOTAM section
Request Generated 11/13/2018 at 18:14:20 UTC . Weather information available at that time is displayed.

METAR/TAF

MOOSONEE/ON    (show WxCam)

METAR CYMO 131800Z AUTO 23017KT 9SM BKN024 M13/M18 A3008 RMK SLP187=
SPECI CYMO 131715Z AUTO 23013G18KT 9SM BKN024 M13/M18 A3009 RMK SLP192=
METAR CYMO 131700Z AUTO 23013G19KT 9SM SCT024 SCT060 M14/M18 A3010 RMK SLP194=
SPECI CYMO 131633Z AUTO 26013KT 9SM SCT022 BKN065 M14/M18 A3011 RMK SLP197=
SPECI CYMO 131616Z AUTO 24009G18KT 9SM BKN022 M14/M18 A3011 RMK SLP199=
METAR CYMO 131600Z AUTO 24015KT 9SM SCT020 BKN055 M14/M18 A3011 RMK SLP198=

TAF CYMO 131749Z 1318/1406 23015G25KT P6SM BKN025 TEMPO 1318/1404 5SM
-SN OVC020 PROB30 1318/1404 21/2SM -SN BLSN
FM140400 28015G25KT P6SM FEW020 BKN040 OVC080
RMK FCST BASED ON AUTO OBS. NXT FCST BY 140000Z=
Your time UTC time
Weather data provided by Environment Canada and NAV CANADA